createdAt,value
2023-03-16T00:02:10.204Z,84.04
2023-03-16T00:04:37.799Z,84.33
2023-03-16T00:07:06.314Z,84.14
2023-03-16T00:09:33.047Z,84.29
2023-03-16T00:12:03.310Z,83.93
2023-03-16T00:14:30.749Z,83.40
2023-03-16T00:16:57.526Z,83.83
2023-03-16T00:19:24.537Z,84.96
2023-03-16T00:21:51.897Z,83.69
2023-03-16T00:24:19.483Z,83.85
2023-03-16T00:26:47.476Z,84.78
2023-03-16T00:29:14.785Z,84.90
2023-03-16T00:31:44.132Z,83.46
2023-03-16T00:34:12.356Z,85.26
2023-03-16T00:36:39.046Z,85.25
2023-03-16T00:39:07.008Z,84.19
2023-03-16T00:41:38.147Z,83.78
2023-03-16T00:44:05.769Z,85.29
2023-03-16T00:46:32.752Z,84.07
2023-03-16T00:48:59.263Z,84.89
2023-03-16T00:51:25.846Z,83.95
2023-03-16T00:53:52.403Z,84.24
2023-03-16T00:56:19.133Z,85.27
2023-03-16T00:58:45.750Z,84.16
2023-03-16T01:01:16.271Z,85.50
2023-03-16T01:03:43.329Z,84.86
2023-03-16T01:06:13.498Z,85.56
2023-03-16T01:08:42.030Z,85.50
2023-03-16T01:11:11.987Z,84.55
2023-03-16T01:13:39.655Z,84.51
2023-03-16T01:16:07.821Z,84.72
2023-03-16T01:18:34.704Z,85.83
2023-03-16T01:21:03.683Z,85.38
2023-03-16T01:23:31.445Z,85.21
2023-03-16T01:25:59.515Z,84.77
2023-03-16T01:28:29.067Z,85.81
2023-03-16T01:31:02.054Z,85.31
2023-03-16T01:33:28.883Z,86.17
2023-03-16T01:35:57.110Z,86.03
2023-03-16T01:38:24.491Z,85.84
2023-03-16T01:40:52.342Z,84.78
2023-03-16T01:43:22.014Z,85.78
2023-03-16T01:46:15.506Z,85.26
2023-03-16T01:48:58.530Z,84.89
2023-03-16T01:54:07.980Z,83.90
2023-03-16T01:56:41.843Z,85.29
2023-03-16T01:59:14.300Z,84.63
2023-03-16T02:01:41.223Z,85.79
2023-03-16T02:04:23.836Z,86.44
2023-03-16T02:06:52.016Z,85.06
2023-03-16T02:09:19.431Z,86.61
2023-03-16T02:11:46.918Z,85.15
2023-03-16T02:14:14.200Z,84.69
2023-03-16T02:16:42.043Z,85.44
2023-03-16T02:19:14.015Z,85.27
2023-03-16T02:21:54.660Z,85.31
2023-03-16T02:24:21.784Z,86.00
2023-03-16T02:26:55.169Z,86.22
2023-03-16T02:31:59.998Z,85.63
2023-03-16T02:34:27.892Z,86.36
2023-03-16T02:36:55.809Z,86.85
2023-03-16T02:39:22.356Z,85.34
2023-03-16T02:41:48.951Z,85.27
2023-03-16T02:44:27.712Z,85.16
2023-03-16T02:47:00.016Z,85.45
2023-03-16T02:49:34.093Z,85.42
2023-03-16T02:52:00.644Z,85.38
2023-03-16T02:54:27.232Z,85.67
2023-03-16T02:56:53.762Z,85.21
2023-03-16T02:59:20.436Z,86.14
2023-03-16T03:01:49.282Z,85.75
2023-03-16T03:04:16.185Z,85.54
2023-03-16T03:06:42.837Z,85.64
2023-03-16T03:09:11.764Z,86.51
2023-03-16T03:11:38.762Z,86.42
2023-03-16T03:14:05.419Z,85.40
2023-03-16T03:16:32.125Z,86.17
2023-03-16T03:18:59.359Z,85.94
2023-03-16T03:21:25.934Z,86.00
2023-03-16T03:23:52.722Z,86.20
2023-03-16T03:26:20.142Z,85.52
2023-03-16T03:28:46.979Z,86.18
2023-03-16T03:31:20.761Z,85.49
2023-03-16T03:33:47.871Z,85.50
2023-03-16T03:36:14.776Z,86.28
2023-03-16T03:38:41.574Z,86.48
2023-03-16T03:41:08.202Z,86.22
2023-03-16T03:43:35.385Z,86.06
2023-03-16T03:46:03.757Z,85.70
2023-03-16T03:48:30.660Z,85.36
2023-03-16T03:50:57.462Z,85.17
2023-03-16T03:53:23.992Z,85.58
2023-03-16T03:55:50.741Z,86.28
2023-03-16T03:58:17.326Z,85.09
2023-03-16T04:00:43.862Z,86.21
2023-03-16T04:03:10.677Z,86.30
2023-03-16T04:05:37.495Z,85.42
2023-03-16T04:08:04.340Z,85.34
2023-03-16T04:10:31.319Z,85.80
2023-03-16T04:12:59.504Z,85.93
2023-03-16T04:15:26.610Z,85.82
2023-03-16T04:17:53.199Z,85.42
2023-03-16T04:20:20.118Z,85.18
2023-03-16T04:22:47.416Z,85.61
2023-03-16T04:25:16.266Z,85.79
2023-03-16T04:27:43.851Z,85.32
2023-03-16T04:30:15.709Z,85.49
2023-03-16T04:32:42.337Z,85.88
2023-03-16T04:35:10.148Z,84.78
2023-03-16T04:37:36.816Z,85.52
2023-03-16T04:40:11.111Z,85.18
2023-03-16T04:42:38.259Z,85.30
2023-03-16T04:45:05.215Z,85.48
2023-03-16T04:47:33.917Z,85.21
2023-03-16T04:50:02.635Z,85.04
2023-03-16T04:52:29.215Z,85.29
2023-03-16T04:54:55.752Z,85.20
2023-03-16T04:57:22.660Z,84.99
2023-03-16T04:59:49.598Z,84.38
2023-03-16T05:02:17.647Z,84.89
2023-03-16T05:04:44.218Z,84.26
2023-03-16T05:07:11.564Z,85.03
2023-03-16T05:09:38.118Z,84.85
2023-03-16T05:12:04.694Z,84.20
2023-03-16T05:14:31.243Z,85.10
2023-03-16T05:16:57.827Z,84.69
2023-03-16T05:19:24.682Z,84.04
2023-03-16T05:21:51.226Z,84.11
2023-03-16T05:24:18.146Z,84.08
2023-03-16T05:26:44.686Z,84.19
2023-03-16T05:29:11.659Z,84.37
2023-03-16T05:31:38.525Z,83.81
2023-03-16T05:34:05.139Z,84.14
2023-03-16T05:36:31.763Z,83.97
2023-03-16T05:38:59.559Z,83.77
2023-03-16T05:41:26.577Z,84.34
2023-03-16T05:43:53.176Z,83.94
2023-03-16T05:46:20.948Z,84.59
2023-03-16T05:48:47.574Z,84.37
2023-03-16T05:51:14.296Z,83.97
2023-03-16T05:53:41.000Z,83.84
2023-03-16T05:56:07.856Z,83.58
2023-03-16T05:58:34.396Z,83.77
2023-03-16T06:01:02.124Z,83.96
2023-03-16T06:03:28.928Z,83.30
2023-03-16T06:05:55.486Z,83.23
2023-03-16T06:08:22.186Z,83.55
2023-03-16T06:10:48.967Z,83.42
2023-03-16T06:13:15.553Z,83.57
2023-03-16T06:15:42.162Z,83.58
2023-03-16T06:18:08.689Z,83.44
2023-03-16T06:20:35.570Z,83.13
2023-03-16T06:23:02.084Z,82.88
2023-03-16T06:25:28.586Z,83.12
2023-03-16T06:27:55.231Z,82.98
2023-03-16T06:30:22.030Z,83.54
2023-03-16T06:32:48.693Z,83.28
2023-03-16T06:35:15.351Z,83.09
2023-03-16T06:37:42.034Z,83.38
2023-03-16T06:40:09.893Z,82.88
2023-03-16T06:42:36.487Z,83.13
2023-03-16T06:45:03.308Z,82.87
2023-03-16T06:47:29.911Z,82.72
2023-03-16T06:49:56.466Z,82.91
2023-03-16T06:52:23.137Z,83.07
2023-03-16T06:54:49.869Z,82.83
2023-03-16T06:57:16.684Z,82.59
2023-03-16T06:59:43.287Z,82.95
2023-03-16T07:02:13.824Z,82.87
2023-03-16T07:04:41.850Z,83.00
2023-03-16T07:07:09.236Z,83.19
2023-03-16T07:09:39.140Z,82.66
2023-03-16T07:12:07.134Z,82.73
2023-03-16T07:14:33.694Z,82.52
2023-03-16T07:17:00.305Z,82.35
2023-03-16T07:19:26.994Z,82.66
2023-03-16T07:21:54.032Z,82.43
2023-03-16T07:24:21.056Z,82.21
2023-03-16T07:26:47.646Z,81.59
2023-03-16T07:29:14.458Z,82.31
2023-03-16T07:31:41.052Z,82.37
2023-03-16T07:34:07.956Z,82.42
2023-03-16T07:36:34.616Z,82.14
2023-03-16T07:39:01.420Z,81.90
2023-03-16T07:41:28.131Z,81.82
2023-03-16T07:43:55.644Z,81.80
2023-03-16T07:46:22.386Z,81.91
2023-03-16T07:48:49.008Z,81.69
2023-03-16T07:51:15.664Z,81.83
2023-03-16T07:53:42.397Z,81.82
2023-03-16T07:56:09.320Z,82.00
2023-03-16T07:58:35.976Z,81.47
2023-03-16T08:01:02.542Z,81.86
2023-03-16T08:03:30.040Z,81.48
2023-03-16T08:05:56.706Z,81.39
2023-03-16T08:08:23.751Z,81.42
2023-03-16T08:10:52.753Z,81.66
2023-03-16T08:13:22.426Z,80.86
2023-03-16T08:15:55.969Z,81.22
2023-03-16T08:18:23.898Z,81.33
2023-03-16T08:20:50.870Z,80.78
2023-03-16T08:23:17.465Z,81.21
2023-03-16T08:25:44.036Z,81.38
2023-03-16T08:28:12.705Z,81.00
2023-03-16T08:30:45.925Z,80.74
2023-03-16T08:33:12.963Z,81.08
2023-03-16T08:35:44.777Z,80.98
2023-03-16T08:38:12.538Z,80.69
2023-03-16T08:40:42.155Z,80.05
2023-03-16T08:43:08.982Z,80.61
2023-03-16T08:45:35.594Z,80.51
2023-03-16T08:48:02.119Z,81.10
2023-03-16T08:50:28.913Z,80.10
2023-03-16T08:52:55.661Z,80.13
2023-03-16T08:55:22.340Z,79.99
2023-03-16T08:57:49.714Z,79.93
2023-03-16T09:00:17.924Z,80.55
2023-03-16T09:02:44.622Z,79.92
2023-03-16T09:05:14.952Z,79.66
2023-03-16T09:07:42.512Z,80.07
2023-03-16T09:10:13.337Z,78.93
2023-03-16T09:12:40.961Z,79.74
2023-03-16T09:15:10.169Z,78.75
2023-03-16T09:17:36.812Z,78.63
2023-03-16T09:20:21.182Z,79.17
2023-03-16T09:22:48.737Z,78.93
2023-03-16T09:25:15.574Z,78.11
2023-03-16T09:27:42.721Z,78.48
2023-03-16T09:30:10.452Z,78.61
2023-03-16T09:32:37.476Z,78.79
2023-03-16T09:35:06.333Z,79.09
2023-03-16T09:37:44.611Z,77.74
2023-03-16T09:40:23.765Z,77.00
2023-03-16T09:43:02.228Z,76.88
2023-03-16T09:45:58.646Z,76.66
2023-03-16T09:48:29.684Z,77.30
2023-03-16T09:50:56.891Z,76.13
2023-03-16T09:53:29.756Z,76.92
2023-03-16T09:56:04.477Z,76.01
2023-03-16T09:58:33.023Z,76.36
2023-03-16T10:04:13.211Z,76.80
2023-03-16T10:07:12.644Z,76.85
2023-03-16T10:09:59.001Z,76.80
2023-03-16T10:12:32.801Z,77.21
2023-03-16T10:15:09.362Z,77.45
2023-03-16T10:17:38.888Z,76.86
2023-03-16T10:20:11.197Z,77.63
2023-03-16T10:22:42.919Z,76.80
2023-03-16T10:27:53.032Z,77.21
2023-03-16T10:30:31.172Z,76.26
2023-03-16T10:33:05.470Z,76.12
2023-03-16T10:38:48.353Z,76.29
2023-03-16T10:44:17.234Z,74.97
2023-03-16T10:46:48.972Z,76.04
2023-03-16T10:49:27.299Z,74.87
2023-03-16T10:51:57.186Z,75.23
2023-03-16T10:54:35.592Z,75.77
2023-03-16T10:57:27.030Z,75.38
2023-03-16T10:59:56.765Z,74.47
2023-03-16T11:02:30.732Z,74.52
2023-03-16T11:04:57.829Z,73.81
2023-03-16T11:07:25.557Z,75.31
2023-03-16T11:09:52.833Z,74.26
2023-03-16T11:15:25.232Z,74.42
2023-03-16T11:17:53.597Z,73.36
2023-03-16T11:20:26.422Z,73.96
2023-03-16T11:22:53.065Z,73.38
2023-03-16T11:25:29.170Z,73.30
2023-03-16T11:30:49.668Z,73.95
2023-03-16T11:33:16.496Z,73.61
2023-03-16T11:47:19.716Z,72.87
2023-03-16T11:49:57.286Z,72.62
2023-03-16T11:52:49.734Z,72.35
2023-03-16T12:07:04.857Z,72.46
2023-03-16T12:10:03.204Z,73.13
2023-03-16T12:15:39.503Z,72.16
2023-03-16T12:20:58.767Z,71.58
2023-03-16T12:23:38.294Z,72.52
2023-03-16T12:26:05.272Z,71.38
2023-03-16T12:28:33.486Z,72.12
2023-03-16T12:31:23.935Z,71.61
2023-03-16T12:34:16.484Z,71.56
2023-03-16T12:47:32.007Z,70.63
2023-03-16T12:50:08.685Z,70.96
2023-03-16T12:58:12.585Z,70.55
2023-03-16T13:00:45.068Z,70.11
2023-03-16T13:03:20.051Z,70.52
2023-03-16T13:05:53.190Z,69.67
2023-03-16T13:08:21.456Z,68.58
2023-03-16T13:11:10.205Z,68.61
2023-03-16T13:16:31.783Z,69.16
2023-03-16T13:18:59.436Z,68.96
2023-03-16T13:21:42.736Z,69.32
2023-03-16T13:24:29.624Z,68.30
2023-03-16T13:27:04.497Z,67.51
2023-03-16T13:29:32.835Z,68.87
2023-03-16T13:32:02.879Z,68.62
2023-03-16T13:34:32.757Z,68.35
2023-03-16T13:37:01.571Z,67.99
2023-03-16T13:39:30.288Z,67.82
2023-03-16T13:44:33.186Z,68.44
2023-03-16T13:47:05.223Z,67.40
2023-03-16T13:49:31.774Z,68.04
2023-03-16T13:51:58.866Z,68.75
2023-03-16T13:54:28.370Z,67.93
2023-03-16T13:56:59.695Z,68.08
2023-03-16T13:59:26.652Z,68.11
2023-03-16T14:01:59.649Z,68.21
2023-03-16T14:04:29.802Z,68.40
2023-03-16T14:07:00.805Z,68.31
2023-03-16T14:09:31.919Z,68.40
2023-03-16T14:11:59.051Z,68.33
2023-03-16T14:17:16.085Z,68.61
2023-03-16T14:19:48.061Z,67.85
2023-03-16T14:22:19.019Z,68.87
2023-03-16T14:24:52.268Z,68.40
2023-03-16T14:30:02.490Z,69.01
2023-03-16T14:32:31.995Z,70.08
2023-03-16T14:35:10.134Z,70.02
2023-03-16T14:37:37.656Z,69.70
2023-03-16T14:40:08.681Z,70.18
2023-03-16T14:42:35.604Z,70.59
2023-03-16T14:45:09.835Z,70.50
2023-03-16T14:47:41.938Z,70.87
2023-03-16T14:50:15.322Z,71.09
2023-03-16T14:52:42.008Z,70.10
2023-03-16T14:55:13.060Z,70.19
2023-03-16T14:57:41.813Z,70.37
2023-03-16T15:00:12.071Z,71.20
2023-03-16T15:02:41.469Z,70.81
2023-03-16T15:05:09.870Z,71.35
2023-03-16T15:07:40.776Z,70.33
2023-03-16T15:10:22.002Z,70.18
2023-03-16T15:12:54.665Z,70.16
2023-03-16T15:15:23.663Z,71.29
2023-03-16T15:17:52.419Z,70.43
2023-03-16T15:20:24.260Z,70.28
2023-03-16T15:22:52.999Z,70.39
2023-03-16T15:27:59.699Z,70.82
2023-03-16T15:30:28.709Z,70.97
2023-03-16T15:32:55.558Z,69.54
2023-03-16T15:35:22.298Z,70.68
2023-03-16T15:37:49.008Z,70.24
2023-03-16T15:42:53.373Z,70.66
2023-03-16T15:45:22.491Z,70.90
2023-03-16T15:47:51.818Z,69.80
2023-03-16T15:50:21.800Z,69.50
2023-03-16T15:52:54.164Z,69.24
2023-03-16T15:55:24.310Z,68.98
2023-03-16T15:57:58.764Z,69.22
2023-03-16T16:03:07.342Z,70.00
2023-03-16T16:05:34.052Z,70.16
2023-03-16T16:08:00.772Z,69.35
2023-03-16T16:10:28.691Z,69.69
2023-03-16T16:12:56.979Z,69.15
2023-03-16T16:15:33.757Z,69.29
2023-03-16T16:18:20.544Z,68.80
2023-03-16T16:20:48.356Z,69.66
2023-03-16T16:23:15.140Z,69.36
2023-03-16T16:25:42.288Z,69.88
2023-03-16T16:28:16.898Z,69.74
2023-03-16T16:30:43.996Z,68.89
2023-03-16T16:33:22.455Z,68.94
2023-03-16T16:35:49.088Z,69.41
2023-03-16T16:38:15.668Z,70.39
2023-03-16T16:40:46.015Z,69.72
2023-03-16T16:43:37.727Z,70.13
2023-03-16T16:46:11.262Z,70.99
2023-03-16T16:48:39.572Z,71.32
2023-03-16T16:51:14.383Z,70.96
2023-03-16T16:53:41.636Z,70.58
2023-03-16T16:56:13.669Z,71.68
2023-03-16T16:58:40.726Z,71.29
2023-03-16T17:01:15.826Z,71.07
2023-03-16T17:03:42.983Z,71.98
2023-03-16T17:06:16.960Z,72.53
2023-03-16T17:08:45.315Z,71.71
2023-03-16T17:11:22.990Z,71.78
2023-03-16T17:13:52.746Z,71.56
2023-03-16T17:16:21.419Z,71.97
2023-03-16T17:18:49.559Z,72.90
2023-03-16T17:21:19.735Z,72.87
2023-03-16T17:23:48.960Z,72.43
2023-03-16T17:26:19.190Z,72.78
2023-03-16T17:28:52.290Z,71.55
2023-03-16T17:31:23.905Z,71.70
2023-03-16T17:33:52.671Z,71.67
2023-03-16T17:36:20.946Z,72.27
2023-03-16T17:38:47.772Z,72.60
2023-03-16T17:41:22.714Z,72.53
2023-03-16T17:43:51.790Z,71.60
2023-03-16T17:46:21.200Z,72.40
2023-03-16T17:48:48.751Z,72.06
2023-03-16T17:51:16.595Z,71.98
2023-03-16T17:53:44.219Z,72.21
2023-03-16T17:58:57.395Z,70.61
2023-03-16T18:01:29.958Z,72.19
2023-03-16T18:03:57.652Z,71.92
2023-03-16T18:06:29.761Z,72.50
2023-03-16T18:08:57.258Z,72.65
2023-03-16T18:11:35.459Z,72.95
2023-03-16T18:14:04.070Z,74.37
2023-03-16T18:16:31.469Z,73.19
2023-03-16T18:19:04.022Z,73.40
2023-03-16T18:21:31.439Z,73.64
2023-03-16T18:23:58.022Z,74.46
2023-03-16T18:26:24.646Z,74.61
2023-03-16T18:28:53.495Z,74.70
2023-03-16T18:31:24.044Z,74.88
2023-03-16T18:33:53.931Z,74.22
2023-03-16T18:36:26.630Z,74.82
2023-03-16T18:38:54.399Z,75.77
2023-03-16T18:43:59.711Z,75.25
2023-03-16T18:49:14.355Z,75.51
2023-03-16T18:51:43.125Z,76.21
2023-03-16T18:54:21.014Z,75.29
2023-03-16T18:56:48.557Z,76.19
2023-03-16T18:59:15.565Z,76.13
2023-03-16T19:01:44.216Z,77.07
2023-03-16T19:04:30.053Z,77.18
2023-03-16T19:06:57.641Z,76.90
2023-03-16T19:09:28.747Z,76.26
2023-03-16T19:11:55.374Z,76.62
2023-03-16T19:17:01.268Z,76.21
2023-03-16T19:19:27.900Z,76.45
2023-03-16T19:22:01.301Z,77.19
2023-03-16T19:24:31.721Z,76.80
2023-03-16T19:26:58.677Z,76.87
2023-03-16T19:29:33.277Z,77.77
2023-03-16T19:32:00.820Z,77.49
2023-03-16T19:34:28.337Z,77.14
2023-03-16T19:36:54.930Z,76.98
2023-03-16T19:39:21.568Z,76.54
2023-03-16T19:41:56.465Z,76.95
2023-03-16T19:44:25.897Z,77.13
2023-03-16T19:46:52.891Z,77.58
2023-03-16T19:49:22.817Z,77.07
2023-03-16T19:51:51.412Z,76.65
2023-03-16T19:54:31.575Z,76.49
2023-03-16T19:57:02.080Z,77.22
2023-03-16T19:59:33.525Z,77.79
2023-03-16T20:02:00.909Z,77.95
2023-03-16T20:04:28.058Z,78.25
2023-03-16T20:06:54.683Z,78.01
2023-03-16T20:09:22.534Z,77.91
2023-03-16T20:11:49.757Z,77.48
2023-03-16T20:14:20.819Z,77.13
2023-03-16T20:16:48.261Z,77.12
2023-03-16T20:19:15.989Z,78.01
2023-03-16T20:21:43.107Z,77.86
2023-03-16T20:24:16.285Z,78.26
2023-03-16T20:26:44.164Z,78.22
2023-03-16T20:29:32.269Z,78.73
2023-03-16T20:31:59.827Z,78.51
2023-03-16T20:34:29.795Z,77.73
2023-03-16T20:36:57.828Z,78.95
2023-03-16T20:39:24.447Z,77.92
2023-03-16T20:41:52.111Z,79.10
2023-03-16T20:44:20.837Z,78.84
2023-03-16T20:46:47.762Z,78.67
2023-03-16T20:51:59.333Z,78.31
2023-03-16T20:54:25.950Z,78.47
2023-03-16T20:56:52.585Z,78.93
2023-03-16T20:59:23.874Z,78.75
2023-03-16T21:01:51.877Z,79.09
2023-03-16T21:04:22.539Z,78.51
2023-03-16T21:06:50.972Z,78.32
2023-03-16T21:09:18.586Z,78.60
2023-03-16T21:11:46.116Z,79.00
2023-03-16T21:14:17.071Z,78.51
2023-03-16T21:16:44.716Z,79.03
2023-03-16T21:19:17.129Z,78.70
2023-03-16T21:21:43.854Z,78.58
2023-03-16T21:24:10.447Z,78.92
2023-03-16T21:26:37.488Z,78.50
2023-03-16T21:29:08.317Z,78.03
2023-03-16T21:31:35.019Z,78.96
2023-03-16T21:34:01.926Z,78.02
2023-03-16T21:36:28.656Z,78.60
2023-03-16T21:38:57.146Z,78.47
2023-03-16T21:41:23.796Z,79.15
2023-03-16T21:43:51.059Z,78.85
2023-03-16T21:48:55.748Z,78.04
2023-03-16T21:51:28.500Z,79.20
2023-03-16T21:53:55.190Z,79.35
2023-03-16T21:56:25.389Z,78.89
2023-03-16T21:58:53.391Z,79.34
2023-03-16T22:04:05.947Z,79.30
2023-03-16T22:06:32.865Z,79.19
2023-03-16T22:08:59.902Z,79.54
2023-03-16T22:11:29.790Z,80.23
2023-03-16T22:13:57.860Z,78.89
2023-03-16T22:16:28.055Z,79.35
2023-03-16T22:18:57.986Z,79.37
2023-03-16T22:21:34.365Z,79.73
2023-03-16T22:24:02.243Z,80.09
2023-03-16T22:26:29.744Z,79.88
2023-03-16T22:28:57.020Z,79.54
2023-03-16T22:31:32.871Z,79.73
2023-03-16T22:34:00.789Z,80.34
2023-03-16T22:36:27.903Z,79.66
2023-03-16T22:39:12.253Z,79.31
2023-03-16T22:41:38.883Z,80.30
2023-03-16T22:44:05.639Z,79.83
2023-03-16T22:46:32.202Z,80.11
2023-03-16T22:48:58.741Z,80.12
2023-03-16T22:54:05.959Z,80.40
2023-03-16T22:56:34.883Z,80.31
2023-03-16T22:59:06.096Z,80.28
2023-03-16T23:01:37.611Z,79.46
2023-03-16T23:04:13.655Z,79.35
2023-03-16T23:06:40.267Z,79.65
2023-03-16T23:09:06.844Z,79.38
2023-03-16T23:11:35.945Z,80.39
2023-03-16T23:14:02.953Z,79.34
2023-03-16T23:16:34.531Z,79.15
2023-03-16T23:19:01.718Z,79.30
2023-03-16T23:21:29.838Z,79.58
2023-03-16T23:24:03.867Z,79.56
2023-03-16T23:26:32.024Z,80.05
2023-03-16T23:28:59.767Z,79.80
2023-03-16T23:31:27.680Z,79.98
2023-03-16T23:33:54.377Z,79.54
2023-03-16T23:36:24.627Z,79.02
2023-03-16T23:38:51.766Z,79.86
2023-03-16T23:41:22.378Z,80.01
2023-03-16T23:43:50.745Z,78.81
2023-03-16T23:46:21.471Z,79.01
2023-03-16T23:48:49.296Z,79.25
2023-03-16T23:51:27.309Z,79.88
2023-03-16T23:53:54.092Z,79.34
2023-03-16T23:56:22.193Z,80.07
2023-03-16T23:58:49.531Z,80.11
